sensor_id;sensor_type;location;lat;lon;timestamp;temperature;humidity
7496;DHT22;3789;47.064;15.482;2023-03-02T00:01:37;-0.20;99.90
7496;DHT22;3789;47.064;15.482;2023-03-02T00:04:08;0.40;99.90
7496;DHT22;3789;47.064;15.482;2023-03-02T00:06:37;0.70;99.90
7496;DHT22;3789;47.064;15.482;2023-03-02T00:09:05;1.00;99.90
7496;DHT22;3789;47.064;15.482;2023-03-02T00:11:34;1.30;99.90
7496;DHT22;3789;47.064;15.482;2023-03-02T00:14:04;1.50;99.90
7496;DHT22;3789;47.064;15.482;2023-03-02T00:16:32;1.60;99.90
7496;DHT22;3789;47.064;15.482;2023-03-02T00:19:00;1.70;99.90
7496;DHT22;3789;47.064;15.482;2023-03-02T00:21:28;1.80;99.90
7496;DHT22;3789;47.064;15.482;2023-03-02T00:23:55;1.90;99.90
7496;DHT22;3789;47.064;15.482;2023-03-02T00:26:22;2.00;99.90
7496;DHT22;3789;47.064;15.482;2023-03-02T00:28:49;2.10;99.90
7496;DHT22;3789;47.064;15.482;2023-03-02T00:31:17;2.20;99.90
7496;DHT22;3789;47.064;15.482;2023-03-02T00:33:44;2.30;99.90
7496;DHT22;3789;47.064;15.482;2023-03-02T00:36:16;2.40;99.90
7496;DHT22;3789;47.064;15.482;2023-03-02T00:38:44;2.40;99.90
7496;DHT22;3789;47.064;15.482;2023-03-02T00:41:12;2.40;99.90
7496;DHT22;3789;47.064;15.482;2023-03-02T00:43:40;2.50;99.90
7496;DHT22;3789;47.064;15.482;2023-03-02T00:46:13;2.50;99.90
7496;DHT22;3789;47.064;15.482;2023-03-02T00:48:41;2.60;99.90
7496;DHT22;3789;47.064;15.482;2023-03-02T00:51:09;2.60;99.90
7496;DHT22;3789;47.064;15.482;2023-03-02T00:53:37;2.70;99.90
7496;DHT22;3789;47.064;15.482;2023-03-02T00:56:05;2.70;99.90
7496;DHT22;3789;47.064;15.482;2023-03-02T00:58:34;2.80;99.90
7496;DHT22;3789;47.064;15.482;2023-03-02T01:01:07;2.80;99.90
7496;DHT22;3789;47.064;15.482;2023-03-02T01:03:36;1.90;99.90
7496;DHT22;3789;47.064;15.482;2023-03-02T01:09:18;-1.20;99.90
7496;DHT22;3789;47.064;15.482;2023-03-02T01:11:45;-2.10;99.90
7496;DHT22;3789;47.064;15.482;2023-03-02T01:14:13;-2.60;99.90
7496;DHT22;3789;47.064;15.482;2023-03-02T01:20:28;-3.10;99.90
7496;DHT22;3789;47.064;15.482;2023-03-02T01:22:55;-3.30;99.90
7496;DHT22;3789;47.064;15.482;2023-03-02T01:25:23;-3.50;99.90
7496;DHT22;3789;47.064;15.482;2023-03-02T01:27:50;-3.60;99.90
7496;DHT22;3789;47.064;15.482;2023-03-02T01:30:18;-3.70;99.90
7496;DHT22;3789;47.064;15.482;2023-03-02T01:32:45;-3.90;99.90
7496;DHT22;3789;47.064;15.482;2023-03-02T01:35:12;-4.00;99.90
7496;DHT22;3789;47.064;15.482;2023-03-02T01:37:40;-4.10;99.90
7496;DHT22;3789;47.064;15.482;2023-03-02T01:40:09;-4.10;99.90
7496;DHT22;3789;47.064;15.482;2023-03-02T01:42:39;-4.20;99.90
7496;DHT22;3789;47.064;15.482;2023-03-02T01:48:26;-4.30;99.90
7496;DHT22;3789;47.064;15.482;2023-03-02T01:51:09;-4.30;99.90
7496;DHT22;3789;47.064;15.482;2023-03-02T01:54:09;-4.30;99.90
7496;DHT22;3789;47.064;15.482;2023-03-02T01:56:43;-4.30;99.90
7496;DHT22;3789;47.064;15.482;2023-03-02T01:59:20;-4.40;99.90
7496;DHT22;3789;47.064;15.482;2023-03-02T02:02:08;-4.50;99.90
7496;DHT22;3789;47.064;15.482;2023-03-02T02:04:55;-4.50;99.90
7496;DHT22;3789;47.064;15.482;2023-03-02T02:07:44;-2.50;99.90
7496;DHT22;3789;47.064;15.482;2023-03-02T02:10:35;-1.90;99.90
7496;DHT22;3789;47.064;15.482;2023-03-02T02:13:09;-2.80;99.90
7496;DHT22;3789;47.064;15.482;2023-03-02T02:15:43;-3.10;99.90
7496;DHT22;3789;47.064;15.482;2023-03-02T02:18:13;-3.40;99.90
7496;DHT22;3789;47.064;15.482;2023-03-02T02:20:54;-3.60;99.90
7496;DHT22;3789;47.064;15.482;2023-03-02T02:26:18;-3.70;99.90
7496;DHT22;3789;47.064;15.482;2023-03-02T02:29:24;-3.70;99.90
7496;DHT22;3789;47.064;15.482;2023-03-02T02:32:25;-3.80;99.90
7496;DHT22;3789;47.064;15.482;2023-03-02T02:35:26;-3.70;99.90
7496;DHT22;3789;47.064;15.482;2023-03-02T02:38:02;-3.90;99.90
7496;DHT22;3789;47.064;15.482;2023-03-02T02:40:57;-3.50;99.90
7496;DHT22;3789;47.064;15.482;2023-03-02T02:43:30;-2.60;99.90
7496;DHT22;3789;47.064;15.482;2023-03-02T02:45:58;-1.70;99.90
7496;DHT22;3789;47.064;15.482;2023-03-02T02:48:34;-1.00;99.90
7496;DHT22;3789;47.064;15.482;2023-03-02T02:51:25;-0.20;99.90
7496;DHT22;3789;47.064;15.482;2023-03-02T02:53:59;0.30;99.90
7496;DHT22;3789;47.064;15.482;2023-03-02T02:56:37;0.80;99.90
7496;DHT22;3789;47.064;15.482;2023-03-02T02:59:21;1.10;99.90
7496;DHT22;3789;47.064;15.482;2023-03-02T03:02:43;1.20;99.90
7496;DHT22;3789;47.064;15.482;2023-03-02T03:05:14;1.40;99.90
7496;DHT22;3789;47.064;15.482;2023-03-02T03:07:42;1.60;99.90
7496;DHT22;3789;47.064;15.482;2023-03-02T03:10:24;1.70;99.90
7496;DHT22;3789;47.064;15.482;2023-03-02T03:12:57;1.80;99.90
7496;DHT22;3789;47.064;15.482;2023-03-02T03:15:27;1.90;99.90
7496;DHT22;3789;47.064;15.482;2023-03-02T03:17:56;2.00;99.90
7496;DHT22;3789;47.064;15.482;2023-03-02T03:20:28;2.10;99.90
7496;DHT22;3789;47.064;15.482;2023-03-02T03:23:19;2.20;99.90
7496;DHT22;3789;47.064;15.482;2023-03-02T03:25:52;2.20;99.90
7496;DHT22;3789;47.064;15.482;2023-03-02T03:28:19;2.30;99.90
7496;DHT22;3789;47.064;15.482;2023-03-02T03:30:46;2.40;99.90
7496;DHT22;3789;47.064;15.482;2023-03-02T03:33:32;2.40;99.90
7496;DHT22;3789;47.064;15.482;2023-03-02T03:36:29;2.40;99.90
7496;DHT22;3789;47.064;15.482;2023-03-02T03:39:48;2.50;99.90
7496;DHT22;3789;47.064;15.482;2023-03-02T03:45:15;2.70;99.90
7496;DHT22;3789;47.064;15.482;2023-03-02T03:47:43;2.70;99.90
7496;DHT22;3789;47.064;15.482;2023-03-02T03:50:28;2.70;99.90
7496;DHT22;3789;47.064;15.482;2023-03-02T03:53:01;2.70;99.90
7496;DHT22;3789;47.064;15.482;2023-03-02T03:55:31;2.70;99.90
7496;DHT22;3789;47.064;15.482;2023-03-02T03:58:01;2.80;99.90
7496;DHT22;3789;47.064;15.482;2023-03-02T04:00:28;2.80;99.90
7496;DHT22;3789;47.064;15.482;2023-03-02T04:02:55;2.80;99.90
7496;DHT22;3789;47.064;15.482;2023-03-02T04:05:22;2.90;99.90
7496;DHT22;3789;47.064;15.482;2023-03-02T04:07:57;2.90;99.90
7496;DHT22;3789;47.064;15.482;2023-03-02T04:10:34;2.90;99.90
7496;DHT22;3789;47.064;15.482;2023-03-02T04:13:15;2.90;99.90
7496;DHT22;3789;47.064;15.482;2023-03-02T04:15:57;2.90;99.90
7496;DHT22;3789;47.064;15.482;2023-03-02T04:18:24;2.90;99.90
7496;DHT22;3789;47.064;15.482;2023-03-02T04:20:58;2.90;99.90
7496;DHT22;3789;47.064;15.482;2023-03-02T04:23:28;2.90;99.90
7496;DHT22;3789;47.064;15.482;2023-03-02T04:25:58;2.90;99.90
7496;DHT22;3789;47.064;15.482;2023-03-02T04:28:36;2.90;99.90
7496;DHT22;3789;47.064;15.482;2023-03-02T04:31:03;2.90;99.90
7496;DHT22;3789;47.064;15.482;2023-03-02T04:33:58;3.00;99.90
7496;DHT22;3789;47.064;15.482;2023-03-02T04:36:28;3.00;99.90
7496;DHT22;3789;47.064;15.482;2023-03-02T04:39:19;3.00;99.90
7496;DHT22;3789;47.064;15.482;2023-03-02T04:42:20;3.00;99.90
7496;DHT22;3789;47.064;15.482;2023-03-02T04:44:49;3.00;99.90
7496;DHT22;3789;47.064;15.482;2023-03-02T04:47:22;3.00;99.90
7496;DHT22;3789;47.064;15.482;2023-03-02T04:49:52;3.00;99.90
7496;DHT22;3789;47.064;15.482;2023-03-02T04:52:29;3.00;99.90
7496;DHT22;3789;47.064;15.482;2023-03-02T04:55:24;3.00;99.90
7496;DHT22;3789;47.064;15.482;2023-03-02T04:57:58;3.00;99.90
7496;DHT22;3789;47.064;15.482;2023-03-02T05:00:29;3.00;99.90
7496;DHT22;3789;47.064;15.482;2023-03-02T05:03:01;3.00;99.90
7496;DHT22;3789;47.064;15.482;2023-03-02T05:05:50;3.10;99.90
7496;DHT22;3789;47.064;15.482;2023-03-02T05:08:23;3.10;99.90
7496;DHT22;3789;47.064;15.482;2023-03-02T05:11:26;3.10;99.90
7496;DHT22;3789;47.064;15.482;2023-03-02T05:14:05;3.10;99.90
7496;DHT22;3789;47.064;15.482;2023-03-02T05:16:45;3.10;99.90
7496;DHT22;3789;47.064;15.482;2023-03-02T05:19:29;3.10;99.90
7496;DHT22;3789;47.064;15.482;2023-03-02T05:22:27;3.20;99.90
7496;DHT22;3789;47.064;15.482;2023-03-02T05:25:04;3.20;99.90
7496;DHT22;3789;47.064;15.482;2023-03-02T05:27:56;3.20;99.90
7496;DHT22;3789;47.064;15.482;2023-03-02T05:30:48;3.30;99.90
7496;DHT22;3789;47.064;15.482;2023-03-02T05:33:33;3.30;99.90
7496;DHT22;3789;47.064;15.482;2023-03-02T05:36:01;3.40;99.90
7496;DHT22;3789;47.064;15.482;2023-03-02T05:38:40;3.40;99.90
7496;DHT22;3789;47.064;15.482;2023-03-02T05:41:30;3.40;99.90
7496;DHT22;3789;47.064;15.482;2023-03-02T05:44:07;3.40;99.90
7496;DHT22;3789;47.064;15.482;2023-03-02T05:46:44;3.40;99.90
7496;DHT22;3789;47.064;15.482;2023-03-02T05:49:17;3.40;99.90
7496;DHT22;3789;47.064;15.482;2023-03-02T05:51:44;3.40;99.90
7496;DHT22;3789;47.064;15.482;2023-03-02T05:57:37;3.40;99.90
7496;DHT22;3789;47.064;15.482;2023-03-02T06:00:12;3.40;99.90
7496;DHT22;3789;47.064;15.482;2023-03-02T06:03:01;3.40;99.90
7496;DHT22;3789;47.064;15.482;2023-03-02T06:05:47;3.40;99.90
7496;DHT22;3789;47.064;15.482;2023-03-02T06:08:28;3.40;99.90
7496;DHT22;3789;47.064;15.482;2023-03-02T06:11:07;3.50;99.90
7496;DHT22;3789;47.064;15.482;2023-03-02T06:16:26;3.50;99.90
7496;DHT22;3789;47.064;15.482;2023-03-02T06:19:12;3.50;99.90
7496;DHT22;3789;47.064;15.482;2023-03-02T06:21:40;3.60;99.90
7496;DHT22;3789;47.064;15.482;2023-03-02T06:24:14;3.60;99.90
7496;DHT22;3789;47.064;15.482;2023-03-02T06:26:42;3.60;99.90
7496;DHT22;3789;47.064;15.482;2023-03-02T06:29:21;3.60;99.90
7496;DHT22;3789;47.064;15.482;2023-03-02T06:31:49;3.60;99.90
7496;DHT22;3789;47.064;15.482;2023-03-02T06:34:25;3.70;99.90
7496;DHT22;3789;47.064;15.482;2023-03-02T06:36:56;3.70;99.90
7496;DHT22;3789;47.064;15.482;2023-03-02T06:39:36;3.80;99.90
7496;DHT22;3789;47.064;15.482;2023-03-02T06:42:19;3.90;99.90
7496;DHT22;3789;47.064;15.482;2023-03-02T06:48:20;3.90;99.90
7496;DHT22;3789;47.064;15.482;2023-03-02T06:50:57;4.00;99.90
7496;DHT22;3789;47.064;15.482;2023-03-02T06:53:24;4.00;99.90
7496;DHT22;3789;47.064;15.482;2023-03-02T06:56:15;4.00;99.90
7496;DHT22;3789;47.064;15.482;2023-03-02T06:58:57;4.10;99.90
7496;DHT22;3789;47.064;15.482;2023-03-02T07:01:31;4.10;99.90
7496;DHT22;3789;47.064;15.482;2023-03-02T07:04:07;4.20;99.90
7496;DHT22;3789;47.064;15.482;2023-03-02T07:06:34;4.20;99.90
7496;DHT22;3789;47.064;15.482;2023-03-02T07:09:07;4.30;99.90
7496;DHT22;3789;47.064;15.482;2023-03-02T07:12:04;4.30;99.90
7496;DHT22;3789;47.064;15.482;2023-03-02T07:14:34;4.40;99.90
7496;DHT22;3789;47.064;15.482;2023-03-02T07:17:05;4.50;99.90
7496;DHT22;3789;47.064;15.482;2023-03-02T07:19:33;4.60;99.90
7496;DHT22;3789;47.064;15.482;2023-03-02T07:22:00;4.60;99.90
7496;DHT22;3789;47.064;15.482;2023-03-02T07:24:27;4.60;99.90
7496;DHT22;3789;47.064;15.482;2023-03-02T07:27:03;4.70;99.90
7496;DHT22;3789;47.064;15.482;2023-03-02T07:29:31;4.80;99.90
7496;DHT22;3789;47.064;15.482;2023-03-02T07:32:01;4.90;99.90
7496;DHT22;3789;47.064;15.482;2023-03-02T07:34:29;5.00;99.90
7496;DHT22;3789;47.064;15.482;2023-03-02T07:36:56;5.00;99.90
7496;DHT22;3789;47.064;15.482;2023-03-02T07:39:24;5.00;99.90
7496;DHT22;3789;47.064;15.482;2023-03-02T07:41:56;5.10;99.90
7496;DHT22;3789;47.064;15.482;2023-03-02T07:44:26;5.20;99.90
7496;DHT22;3789;47.064;15.482;2023-03-02T07:46:54;5.20;99.90
7496;DHT22;3789;47.064;15.482;2023-03-02T07:49:22;5.20;99.90
7496;DHT22;3789;47.064;15.482;2023-03-02T07:51:49;5.20;99.90
7496;DHT22;3789;47.064;15.482;2023-03-02T07:54:25;5.20;99.90
7496;DHT22;3789;47.064;15.482;2023-03-02T07:56:53;5.20;99.90
7496;DHT22;3789;47.064;15.482;2023-03-02T07:59:20;5.30;99.90
7496;DHT22;3789;47.064;15.482;2023-03-02T08:01:48;5.40;99.90
7496;DHT22;3789;47.064;15.482;2023-03-02T08:04:15;5.40;99.90
7496;DHT22;3789;47.064;15.482;2023-03-02T08:06:42;5.50;99.90
7496;DHT22;3789;47.064;15.482;2023-03-02T08:09:09;5.60;99.90
7496;DHT22;3789;47.064;15.482;2023-03-02T08:11:37;5.60;99.90
7496;DHT22;3789;47.064;15.482;2023-03-02T08:14:04;5.80;99.90
7496;DHT22;3789;47.064;15.482;2023-03-02T08:16:31;5.90;99.90
7496;DHT22;3789;47.064;15.482;2023-03-02T08:18:58;6.00;99.90
7496;DHT22;3789;47.064;15.482;2023-03-02T08:21:35;5.50;99.90
7496;DHT22;3789;47.064;15.482;2023-03-02T08:24:20;3.70;99.90
7496;DHT22;3789;47.064;15.482;2023-03-02T08:26:48;1.90;99.90
7496;DHT22;3789;47.064;15.482;2023-03-02T08:29:15;0.80;99.90
7496;DHT22;3789;47.064;15.482;2023-03-02T08:31:42;0.10;99.90
7496;DHT22;3789;47.064;15.482;2023-03-02T08:34:10;-0.50;99.90
7496;DHT22;3789;47.064;15.482;2023-03-02T08:36:38;-0.80;99.90
7496;DHT22;3789;47.064;15.482;2023-03-02T08:39:05;-1.10;99.90
7496;DHT22;3789;47.064;15.482;2023-03-02T08:41:32;-1.30;99.90
7496;DHT22;3789;47.064;15.482;2023-03-02T08:44:01;-1.50;99.90
7496;DHT22;3789;47.064;15.482;2023-03-02T08:46:28;-1.70;99.90
7496;DHT22;3789;47.064;15.482;2023-03-02T08:48:56;-1.80;99.90
7496;DHT22;3789;47.064;15.482;2023-03-02T08:51:25;-1.80;99.90
7496;DHT22;3789;47.064;15.482;2023-03-02T08:53:54;-1.90;99.90
7496;DHT22;3789;47.064;15.482;2023-03-02T08:56:31;-1.90;99.90
7496;DHT22;3789;47.064;15.482;2023-03-02T08:59:01;-1.90;99.90
7496;DHT22;3789;47.064;15.482;2023-03-02T09:01:31;-1.80;99.90
7496;DHT22;3789;47.064;15.482;2023-03-02T09:04:00;-1.50;99.90
7496;DHT22;3789;47.064;15.482;2023-03-02T09:06:30;-1.10;99.90
7496;DHT22;3789;47.064;15.482;2023-03-02T09:08:58;-0.70;99.90
7496;DHT22;3789;47.064;15.482;2023-03-02T09:11:25;-0.50;99.90
7496;DHT22;3789;47.064;15.482;2023-03-02T09:13:53;-0.30;99.90
7496;DHT22;3789;47.064;15.482;2023-03-02T09:16:21;-0.10;99.90
7496;DHT22;3789;47.064;15.482;2023-03-02T09:18:50;0.10;99.90
7496;DHT22;3789;47.064;15.482;2023-03-02T09:21:19;0.30;99.90
7496;DHT22;3789;47.064;15.482;2023-03-02T09:23:49;0.80;99.90
7496;DHT22;3789;47.064;15.482;2023-03-02T09:26:20;1.60;99.90
7496;DHT22;3789;47.064;15.482;2023-03-02T09:28:47;2.30;99.90
7496;DHT22;3789;47.064;15.482;2023-03-02T09:31:14;3.00;99.90
7496;DHT22;3789;47.064;15.482;2023-03-02T09:33:41;3.60;99.90
7496;DHT22;3789;47.064;15.482;2023-03-02T09:36:10;4.00;99.90
7496;DHT22;3789;47.064;15.482;2023-03-02T09:38:41;4.50;99.90
7496;DHT22;3789;47.064;15.482;2023-03-02T09:41:56;4.90;99.90
7496;DHT22;3789;47.064;15.482;2023-03-02T09:44:36;5.30;99.90
7496;DHT22;3789;47.064;15.482;2023-03-02T09:50:36;6.00;99.90
7496;DHT22;3789;47.064;15.482;2023-03-02T09:55:46;6.50;99.90
7496;DHT22;3789;47.064;15.482;2023-03-02T09:58:18;6.80;99.90
7496;DHT22;3789;47.064;15.482;2023-03-02T10:00:47;6.90;99.90
7496;DHT22;3789;47.064;15.482;2023-03-02T10:03:23;7.00;99.90
7496;DHT22;3789;47.064;15.482;2023-03-02T10:05:53;7.10;99.90
7496;DHT22;3789;47.064;15.482;2023-03-02T10:08:23;7.10;99.90
7496;DHT22;3789;47.064;15.482;2023-03-02T10:11:35;7.30;99.90
7496;DHT22;3789;47.064;15.482;2023-03-02T10:14:38;7.30;99.90
7496;DHT22;3789;47.064;15.482;2023-03-02T10:19:52;7.30;99.90
7496;DHT22;3789;47.064;15.482;2023-03-02T10:22:28;7.40;99.90
7496;DHT22;3789;47.064;15.482;2023-03-02T10:27:35;7.30;99.90
7496;DHT22;3789;47.064;15.482;2023-03-02T10:30:27;7.40;99.90
7496;DHT22;3789;47.064;15.482;2023-03-02T10:33:01;7.40;99.90
7496;DHT22;3789;47.064;15.482;2023-03-02T10:35:30;7.40;99.90
7496;DHT22;3789;47.064;15.482;2023-03-02T10:38:19;7.40;99.90
7496;DHT22;3789;47.064;15.482;2023-03-02T10:40:59;7.50;99.90
7496;DHT22;3789;47.064;15.482;2023-03-02T10:43:41;7.60;99.90
7496;DHT22;3789;47.064;15.482;2023-03-02T10:46:16;7.80;99.90
7496;DHT22;3789;47.064;15.482;2023-03-02T10:48:51;7.90;99.90
7496;DHT22;3789;47.064;15.482;2023-03-02T10:51:30;8.10;99.90
7496;DHT22;3789;47.064;15.482;2023-03-02T10:54:19;8.20;99.90
7496;DHT22;3789;47.064;15.482;2023-03-02T10:56:54;8.40;99.90
7496;DHT22;3789;47.064;15.482;2023-03-02T11:02:07;8.90;99.90
7496;DHT22;3789;47.064;15.482;2023-03-02T11:04:41;9.20;99.90
7496;DHT22;3789;47.064;15.482;2023-03-02T11:07:19;9.40;99.90
7496;DHT22;3789;47.064;15.482;2023-03-02T11:10:03;9.60;99.90
7496;DHT22;3789;47.064;15.482;2023-03-02T11:12:35;9.70;99.90
7496;DHT22;3789;47.064;15.482;2023-03-02T11:15:17;9.70;99.90
7496;DHT22;3789;47.064;15.482;2023-03-02T11:17:48;9.70;99.90
7496;DHT22;3789;47.064;15.482;2023-03-02T11:20:23;9.70;99.90
7496;DHT22;3789;47.064;15.482;2023-03-02T11:25:55;9.60;99.90
7496;DHT22;3789;47.064;15.482;2023-03-02T11:28:34;9.60;99.90
7496;DHT22;3789;47.064;15.482;2023-03-02T11:31:15;9.70;99.90
7496;DHT22;3789;47.064;15.482;2023-03-02T11:37:54;9.70;99.90
7496;DHT22;3789;47.064;15.482;2023-03-02T11:40:39;9.70;99.90
7496;DHT22;3789;47.064;15.482;2023-03-02T11:43:13;9.70;99.90
7496;DHT22;3789;47.064;15.482;2023-03-02T11:45:59;9.70;99.90
7496;DHT22;3789;47.064;15.482;2023-03-02T11:48:54;9.70;99.90
7496;DHT22;3789;47.064;15.482;2023-03-02T11:51:27;9.70;99.90
7496;DHT22;3789;47.064;15.482;2023-03-02T11:54:04;9.70;99.90
7496;DHT22;3789;47.064;15.482;2023-03-02T11:56:41;9.70;99.90
7496;DHT22;3789;47.064;15.482;2023-03-02T11:59:21;9.60;99.90
7496;DHT22;3789;47.064;15.482;2023-03-02T12:02:04;9.60;99.90
7496;DHT22;3789;47.064;15.482;2023-03-02T12:04:39;9.60;99.90
7496;DHT22;3789;47.064;15.482;2023-03-02T12:07:33;9.60;99.90
7496;DHT22;3789;47.064;15.482;2023-03-02T12:10:07;9.60;99.90
7496;DHT22;3789;47.064;15.482;2023-03-02T12:13:09;9.70;99.90
7496;DHT22;3789;47.064;15.482;2023-03-02T12:15:53;9.70;99.90
7496;DHT22;3789;47.064;15.482;2023-03-02T12:18:45;9.70;99.90
7496;DHT22;3789;47.064;15.482;2023-03-02T12:21:37;9.70;99.90
7496;DHT22;3789;47.064;15.482;2023-03-02T12:24:17;9.70;99.90
7496;DHT22;3789;47.064;15.482;2023-03-02T12:27:06;9.80;99.90
7496;DHT22;3789;47.064;15.482;2023-03-02T12:29:45;9.80;99.90
7496;DHT22;3789;47.064;15.482;2023-03-02T12:32:26;9.90;99.90
7496;DHT22;3789;47.064;15.482;2023-03-02T12:35:00;10.00;99.90
7496;DHT22;3789;47.064;15.482;2023-03-02T12:40:30;10.20;99.90
7496;DHT22;3789;47.064;15.482;2023-03-02T12:43:26;10.20;99.90
7496;DHT22;3789;47.064;15.482;2023-03-02T12:51:29;10.30;99.90
7496;DHT22;3789;47.064;15.482;2023-03-02T12:54:05;10.20;99.90
7496;DHT22;3789;47.064;15.482;2023-03-02T12:56:38;10.20;99.90
7496;DHT22;3789;47.064;15.482;2023-03-02T12:59:06;10.20;99.90
7496;DHT22;3789;47.064;15.482;2023-03-02T13:01:51;10.10;99.90
7496;DHT22;3789;47.064;15.482;2023-03-02T13:04:29;10.00;99.90
7496;DHT22;3789;47.064;15.482;2023-03-02T13:06:56;10.00;99.90
7496;DHT22;3789;47.064;15.482;2023-03-02T13:09:23;10.00;99.90
7496;DHT22;3789;47.064;15.482;2023-03-02T13:11:50;9.80;99.90
7496;DHT22;3789;47.064;15.482;2023-03-02T13:14:25;9.80;99.90
7496;DHT22;3789;47.064;15.482;2023-03-02T13:16:58;9.80;99.90
7496;DHT22;3789;47.064;15.482;2023-03-02T13:19:32;9.70;99.90
7496;DHT22;3789;47.064;15.482;2023-03-02T13:22:05;9.80;99.90
7496;DHT22;3789;47.064;15.482;2023-03-02T13:27:27;9.70;99.90
7496;DHT22;3789;47.064;15.482;2023-03-02T13:30:10;9.70;99.90
7496;DHT22;3789;47.064;15.482;2023-03-02T13:32:41;9.50;99.90
7496;DHT22;3789;47.064;15.482;2023-03-02T13:35:37;9.50;99.90
7496;DHT22;3789;47.064;15.482;2023-03-02T13:38:18;9.60;99.90
7496;DHT22;3789;47.064;15.482;2023-03-02T13:40:51;9.60;99.90
7496;DHT22;3789;47.064;15.482;2023-03-02T13:43:39;9.80;99.90
7496;DHT22;3789;47.064;15.482;2023-03-02T13:46:25;9.90;99.90
7496;DHT22;3789;47.064;15.482;2023-03-02T13:51:40;9.80;99.90
7496;DHT22;3789;47.064;15.482;2023-03-02T13:54:41;9.80;99.90
7496;DHT22;3789;47.064;15.482;2023-03-02T13:57:35;9.90;99.90
7496;DHT22;3789;47.064;15.482;2023-03-02T14:05:53;10.00;99.90
7496;DHT22;3789;47.064;15.482;2023-03-02T14:08:21;10.00;99.90
7496;DHT22;3789;47.064;15.482;2023-03-02T14:10:50;10.00;99.90
7496;DHT22;3789;47.064;15.482;2023-03-02T14:13:22;10.00;99.90
7496;DHT22;3789;47.064;15.482;2023-03-02T14:15:56;10.00;99.90
7496;DHT22;3789;47.064;15.482;2023-03-02T14:18:35;10.00;99.90
7496;DHT22;3789;47.064;15.482;2023-03-02T14:21:23;10.00;99.90
7496;DHT22;3789;47.064;15.482;2023-03-02T14:23:54;9.80;99.90
7496;DHT22;3789;47.064;15.482;2023-03-02T14:26:45;9.60;99.90
7496;DHT22;3789;47.064;15.482;2023-03-02T14:29:31;9.60;99.90
7496;DHT22;3789;47.064;15.482;2023-03-02T14:32:33;9.60;99.90
7496;DHT22;3789;47.064;15.482;2023-03-02T14:35:31;9.70;99.90
7496;DHT22;3789;47.064;15.482;2023-03-02T14:38:03;9.70;99.90
7496;DHT22;3789;47.064;15.482;2023-03-02T14:40:30;9.60;99.90
7496;DHT22;3789;47.064;15.482;2023-03-02T14:43:34;9.50;99.90
7496;DHT22;3789;47.064;15.482;2023-03-02T14:46:00;9.40;99.90
7496;DHT22;3789;47.064;15.482;2023-03-02T14:48:34;9.40;99.90
7496;DHT22;3789;47.064;15.482;2023-03-02T14:51:01;9.40;99.90
7496;DHT22;3789;47.064;15.482;2023-03-02T14:53:33;9.40;99.90
7496;DHT22;3789;47.064;15.482;2023-03-02T14:56:17;9.40;99.90
7496;DHT22;3789;47.064;15.482;2023-03-02T14:59:28;9.40;99.90
7496;DHT22;3789;47.064;15.482;2023-03-02T15:01:56;9.40;99.90
7496;DHT22;3789;47.064;15.482;2023-03-02T15:04:29;9.30;99.90
7496;DHT22;3789;47.064;15.482;2023-03-02T15:06:56;9.20;99.90
7496;DHT22;3789;47.064;15.482;2023-03-02T15:09:24;9.20;99.90
7496;DHT22;3789;47.064;15.482;2023-03-02T15:12:00;9.10;99.90
7496;DHT22;3789;47.064;15.482;2023-03-02T15:14:51;9.00;99.90
7496;DHT22;3789;47.064;15.482;2023-03-02T15:17:22;7.90;95.50
7496;DHT22;3789;47.064;15.482;2023-03-02T15:19:51;5.70;93.60
7496;DHT22;3789;47.064;15.482;2023-03-02T15:22:27;4.00;97.10
7496;DHT22;3789;47.064;15.482;2023-03-02T15:24:54;2.80;98.00
7496;DHT22;3789;47.064;15.482;2023-03-02T15:27:28;1.70;99.80
7496;DHT22;3789;47.064;15.482;2023-03-02T15:29:56;0.90;99.90
7496;DHT22;3789;47.064;15.482;2023-03-02T15:32:23;0.40;99.90
7496;DHT22;3789;47.064;15.482;2023-03-02T15:34:51;0.70;99.90
7496;DHT22;3789;47.064;15.482;2023-03-02T15:37:18;1.40;99.90
7496;DHT22;3789;47.064;15.482;2023-03-02T15:39:45;2.00;99.90
7496;DHT22;3789;47.064;15.482;2023-03-02T15:42:31;2.70;99.90
7496;DHT22;3789;47.064;15.482;2023-03-02T15:45:10;2.50;99.90
7496;DHT22;3789;47.064;15.482;2023-03-02T15:47:38;1.80;99.90
7496;DHT22;3789;47.064;15.482;2023-03-02T15:50:05;1.50;99.90
7496;DHT22;3789;47.064;15.482;2023-03-02T15:52:33;1.10;99.90
7496;DHT22;3789;47.064;15.482;2023-03-02T15:55:00;1.10;99.90
7496;DHT22;3789;47.064;15.482;2023-03-02T15:57:36;1.20;99.90
7496;DHT22;3789;47.064;15.482;2023-03-02T16:00:27;1.10;99.90
7496;DHT22;3789;47.064;15.482;2023-03-02T16:02:55;1.20;99.90
7496;DHT22;3789;47.064;15.482;2023-03-02T16:05:22;1.80;99.90
7496;DHT22;3789;47.064;15.482;2023-03-02T16:07:49;2.50;99.90
7496;DHT22;3789;47.064;15.482;2023-03-02T16:10:19;3.40;99.90
7496;DHT22;3789;47.064;15.482;2023-03-02T16:12:47;4.20;99.90
7496;DHT22;3789;47.064;15.482;2023-03-02T16:15:18;4.70;99.90
7496;DHT22;3789;47.064;15.482;2023-03-02T16:17:45;5.20;99.90
7496;DHT22;3789;47.064;15.482;2023-03-02T16:20:15;5.50;99.90
7496;DHT22;3789;47.064;15.482;2023-03-02T16:22:43;5.70;99.90
7496;DHT22;3789;47.064;15.482;2023-03-02T16:25:28;5.80;99.90
7496;DHT22;3789;47.064;15.482;2023-03-02T16:28:00;5.90;99.90
7496;DHT22;3789;47.064;15.482;2023-03-02T16:30:29;6.00;99.90
7496;DHT22;3789;47.064;15.482;2023-03-02T16:33:01;6.10;99.90
7496;DHT22;3789;47.064;15.482;2023-03-02T16:35:33;6.10;99.90
7496;DHT22;3789;47.064;15.482;2023-03-02T16:38:06;6.20;99.90
7496;DHT22;3789;47.064;15.482;2023-03-02T16:40:37;6.20;99.90
7496;DHT22;3789;47.064;15.482;2023-03-02T16:43:13;6.20;99.90
7496;DHT22;3789;47.064;15.482;2023-03-02T16:45:52;6.20;99.90
7496;DHT22;3789;47.064;15.482;2023-03-02T16:48:20;6.30;99.90
7496;DHT22;3789;47.064;15.482;2023-03-02T16:50:55;6.30;99.90
7496;DHT22;3789;47.064;15.482;2023-03-02T16:53:22;6.20;99.90
7496;DHT22;3789;47.064;15.482;2023-03-02T16:55:49;6.30;99.90
7496;DHT22;3789;47.064;15.482;2023-03-02T16:58:20;6.30;99.90
7496;DHT22;3789;47.064;15.482;2023-03-02T17:00:54;6.30;99.90
7496;DHT22;3789;47.064;15.482;2023-03-02T17:03:24;6.30;99.90
7496;DHT22;3789;47.064;15.482;2023-03-02T17:05:52;6.30;99.90
7496;DHT22;3789;47.064;15.482;2023-03-02T17:08:19;6.30;99.90
7496;DHT22;3789;47.064;15.482;2023-03-02T17:10:46;6.30;99.90
7496;DHT22;3789;47.064;15.482;2023-03-02T17:13:16;6.30;99.90
7496;DHT22;3789;47.064;15.482;2023-03-02T17:15:56;6.30;99.90
7496;DHT22;3789;47.064;15.482;2023-03-02T17:18:28;6.30;99.90
7496;DHT22;3789;47.064;15.482;2023-03-02T17:20:57;6.30;99.90
7496;DHT22;3789;47.064;15.482;2023-03-02T17:23:26;6.30;99.90
7496;DHT22;3789;47.064;15.482;2023-03-02T17:25:54;6.30;99.90
7496;DHT22;3789;47.064;15.482;2023-03-02T17:28:22;6.30;99.90
7496;DHT22;3789;47.064;15.482;2023-03-02T17:30:49;6.30;99.90
7496;DHT22;3789;47.064;15.482;2023-03-02T17:33:19;6.30;99.90
7496;DHT22;3789;47.064;15.482;2023-03-02T17:35:47;6.30;99.90
7496;DHT22;3789;47.064;15.482;2023-03-02T17:38:15;6.40;99.90
7496;DHT22;3789;47.064;15.482;2023-03-02T17:40:42;6.30;99.90
7496;DHT22;3789;47.064;15.482;2023-03-02T17:43:36;6.40;99.90
7496;DHT22;3789;47.064;15.482;2023-03-02T17:46:12;6.40;99.90
7496;DHT22;3789;47.064;15.482;2023-03-02T17:48:41;6.40;99.90
7496;DHT22;3789;47.064;15.482;2023-03-02T17:51:09;6.40;99.90
7496;DHT22;3789;47.064;15.482;2023-03-02T17:53:37;6.40;99.90
7496;DHT22;3789;47.064;15.482;2023-03-02T17:59:03;6.40;99.90
7496;DHT22;3789;47.064;15.482;2023-03-02T18:01:31;6.40;99.90